Nyk Constellation — V7NP4 — position and weather

sailwx.info

Track history (hours):
 
Tides and Currents Weather Stations Pressure Air Temp Water Temp Dewpoint Dewpoint Depression Visibility Wind Speed Wind Dir Waves Ship Positions

Nyk Constellation

Last reported at 2015-Jul-24 23:34 UTC. Time now 2015-Aug-02 06:19 UTC.
Position N 27°09' W 115°13'.
Warning: this ship's position is 8 days out of date.

Length 294 m; draft 11 m.

Type: Cargo ship. MMSI: 538002992.

Date/timePositionNaut miles runAvg speedWind from/ knotsBaromVisibWave heightAir tempDewpointWater temp
2015-Jul-24 23:34N 27°09' W 115°13'1818.2
2015-Jul-24 22:33N 27°23' W 115°25'1817.7
2015-Jul-24 21:34N 27°37' W 115°37'2019.6
2015-Jul-24 20:33N 27°55' W 115°46'6821.5
2015-Jul-24 17:24N 28°59' W 116°13'18420.4
2015-Jul-24 08:24N 31°51' W 117°28'1720.2
2015-Jul-24 07:33N 32°07' W 117°35'1919.0
2015-Jul-24 06:33N 32°25' W 117°43'1716.7
2015-Jul-24 05:33N 32°41' W 117°49'2020.2
2015-Jul-24 04:33N 33°00' W 117°55'1918.9
2015-Jul-24 03:33N 33°17' W 118°05'1211.6
2015-Jul-24 02:33N 33°28' W 118°10'1111.2
2015-Jul-24 01:33N 33°39' W 118°14'7 6.8
2015-Jul-24 00:33N 33°45' W 118°16'1 0.6
2015-Jul-23 23:32N 33°45' W 118°16'0 0.0
2015-Jul-23 22:32N 33°45' W 118°16'0 0.0
2015-Jul-23 21:32N 33°45' W 118°16'0 0.0
2015-Jul-23 20:32N 33°45' W 118°16'0 0.0
2015-Jul-23 19:32N 33°45' W 118°16'0 0.0
2015-Jul-23 18:32N 33°45' W 118°16'0 0.0
2015-Jul-23 17:32N 33°45' W 118°16'0 0.0
2015-Jul-23 16:29N 33°45' W 118°16'0 0.0
2015-Jul-23 15:32N 33°45' W 118°16'0 0.0
2015-Jul-23 14:32N 33°45' W 118°16'0 0.0
2015-Jul-23 13:32N 33°45' W 118°16'1 1.4
2015-Jul-23 12:33N 33°44' W 118°17'4 3.4
2015-Jul-23 11:20N 33°42' W 118°12'0 0.0
2015-Jul-23 05:32N 33°42' W 118°12'0 0.0
2015-Jul-23 03:17N 33°42' W 118°12'0 0.0
2015-Jul-23 00:32N 33°42' W 118°12'0 0.2
2015-Jul-22 23:33N 33°42' W 118°12'7 6.3
2015-Jul-22 22:28N 33°36' W 118°15'17 8.7
2015-Jul-22 20:33N 33°42' W 118°34'12610.3
2015-Jul-22 08:16N 34°25' W 120°57'5411.1
2015-Jul-22 03:27N 35°07' W 121°37'2311.6
2015-Jul-22 01:26N 35°27' W 121°52'2111.0
2015-Jul-21 23:33N 35°45' W 122°06'1111.2
2015-Jul-21 22:33N 35°54' W 122°13'1614.0
2015-Jul-21 21:26N 36°08' W 122°22'1613.8
2015-Jul-21 20:14N 36°23' W 122°30'913.7
2015-Jul-21 19:33N 36°31' W 122°35'1413.6
2015-Jul-21 18:33N 36°44' W 122°41'1413.8
2015-Jul-21 17:33N 36°58' W 122°44'1313.5
2015-Jul-21 16:33N 37°11' W 122°43'1110.6
2015-Jul-21 15:33N 37°22' W 122°44'10 9.6
2015-Jul-21 14:33N 37°32' W 122°44'9 9.4
2015-Jul-21 13:33N 37°41' W 122°43'8 8.1
2015-Jul-21 12:33N 37°47' W 122°36'1211.6
2015-Jul-21 11:33N 37°48' W 122°22'2 2.2
2015-Jul-21 10:32N 37°48' W 122°19'0 0.0
2015-Jul-21 09:32N 37°48' W 122°19'0 0.0
2015-Jul-21 08:32N 37°48' W 122°19'0 0.0
2015-Jul-21 07:32N 37°48' W 122°19'0 0.0
2015-Jul-21 06:32N 37°48' W 122°19'0 0.0
2015-Jul-21 05:32N 37°48' W 122°19'0 0.0
2015-Jul-21 04:32N 37°48' W 122°19'0 0.0
2015-Jul-21 03:32N 37°48' W 122°19'0 0.0
2015-Jul-21 02:32N 37°48' W 122°19'0 0.0
2015-Jul-21 01:32N 37°48' W 122°19'0 0.0
2015-Jul-21 00:32N 37°48' W 122°19'0 0.0
2015-Jul-20 23:32N 37°48' W 122°19'0 0.0
2015-Jul-20 22:32N 37°48' W 122°19'0 0.0
2015-Jul-20 21:32N 37°48' W 122°19'0 0.0
2015-Jul-20 20:32N 37°48' W 122°19'0 0.0
2015-Jul-20 19:32N 37°48' W 122°19'0 0.0
2015-Jul-20 18:32N 37°48' W 122°19'0 0.0
2015-Jul-20 17:32N 37°48' W 122°19'0 0.0
2015-Jul-20 16:32N 37°48' W 122°19'0 0.0
2015-Jul-20 15:32N 37°48' W 122°19'0 0.0
2015-Jul-20 14:32N 37°48' W 122°19'0 0.0
2015-Jul-20 13:32N 37°48' W 122°19'0 0.0
2015-Jul-20 12:32N 37°48' W 122°19'0 0.0
2015-Jul-20 11:32N 37°48' W 122°19'0 0.0
2015-Jul-20 10:32N 37°48' W 122°19'0 0.0
2015-Jul-20 09:32N 37°48' W 122°19'0 0.0
2015-Jul-20 08:32N 37°48' W 122°19'0 0.0
2015-Jul-20 07:32N 37°48' W 122°19'0 0.0
2015-Jul-20 06:32N 37°48' W 122°19'0 0.0
2015-Jul-20 05:32N 37°48' W 122°19'0 0.0
2015-Jul-20 04:32N 37°48' W 122°19'0 0.0
2015-Jul-20 03:32N 37°48' W 122°19'0 0.0
2015-Jul-20 02:32N 37°48' W 122°19'0 0.0
2015-Jul-20 01:32N 37°48' W 122°19'0 0.0
2015-Jul-20 00:32N 37°48' W 122°19'0 0.0
2015-Jul-19 23:32N 37°48' W 122°19'0 0.0
2015-Jul-19 22:32N 37°48' W 122°19'0 0.0
2015-Jul-19 21:32N 37°48' W 122°19'0 0.0
2015-Jul-19 20:32N 37°48' W 122°19'0 0.0
2015-Jul-19 19:32N 37°48' W 122°19'0 0.0
2015-Jul-19 18:32N 37°48' W 122°19'0 0.0
2015-Jul-19 17:32N 37°48' W 122°19'0 0.0
2015-Jul-19 16:32N 37°48' W 122°19'0 0.0
2015-Jul-19 15:32N 37°48' W 122°19'0 0.0
2015-Jul-19 14:32N 37°48' W 122°19'0 0.0
2015-Jul-19 13:32N 37°48' W 122°19'0 0.0
2015-Jul-19 12:32N 37°48' W 122°19'0 0.0
2015-Jul-19 11:32N 37°48' W 122°19'0 0.0
2015-Jul-19 10:32N 37°48' W 122°19'0 0.0
2015-Jul-19 09:32N 37°48' W 122°19'0 0.0
2015-Jul-19 08:32N 37°48' W 122°19'0 0.0
2015-Jul-19 07:32N 37°48' W 122°19'0 0.0
2015-Jul-19 06:32N 37°48' W 122°19'0 0.0
2015-Jul-19 05:32N 37°48' W 122°19'0 0.0
2015-Jul-19 04:32N 37°48' W 122°19'0 0.0
2015-Jul-19 00:32N 37°48' W 122°19'0 0.0
2015-Jul-18 23:32N 37°48' W 122°19'0 0.0
2015-Jul-18 22:32N 37°48' W 122°19'0 0.0
2015-Jul-18 21:32N 37°48' W 122°19'0 0.0
2015-Jul-18 20:29N 37°48' W 122°19'0 0.0
2015-Jul-18 19:32N 37°48' W 122°19'0 0.0
2015-Jul-18 18:32N 37°48' W 122°19'0 0.0
2015-Jul-18 17:32N 37°48' W 122°19'0 0.0
2015-Jul-18 16:32N 37°48' W 122°19'0 0.0
2015-Jul-18 15:32N 37°48' W 122°19'0 0.0
2015-Jul-18 14:33N 37°48' W 122°19'0 0.2
2015-Jul-18 13:34N 37°48' W 122°19'2 2.5
2015-Jul-18 12:33N 37°46' W 122°21'0 0.1
2015-Jul-18 11:33N 37°46' W 122°21'0 0.0
2015-Jul-18 10:33N 37°46' W 122°21'0 0.2
2015-Jul-18 09:33N 37°46' W 122°21'0 0.1
2015-Jul-18 08:33N 37°46' W 122°21'0 0.1
2015-Jul-18 07:33N 37°45' W 122°21'0 0.0
2015-Jul-18 06:33N 37°45' W 122°21'0 0.1
2015-Jul-18 05:33N 37°45' W 122°21'0 0.0
2015-Jul-18 04:33N 37°45' W 122°21'0 0.1
2015-Jul-18 03:33N 37°46' W 122°21'0 0.2
2015-Jul-18 02:33N 37°46' W 122°21'0 0.0
2015-Jul-18 01:33N 37°46' W 122°21'0 0.0
2015-Jul-18 00:33N 37°46' W 122°21'0 0.1
2015-Jul-17 23:33N 37°46' W 122°21'0 0.1
2015-Jul-17 22:33N 37°46' W 122°21'0 0.1
2015-Jul-17 21:33N 37°46' W 122°21'0 0.1
2015-Jul-17 20:33N 37°45' W 122°21'0 0.0
2015-Jul-17 19:33N 37°45' W 122°21'0 0.0
2015-Jul-17 18:33N 37°45' W 122°21'0 0.0
2015-Jul-17 17:33N 37°45' W 122°21'0 0.2
2015-Jul-17 16:33N 37°46' W 122°21'0 0.2
2015-Jul-17 15:33N 37°46' W 122°21'0 0.0
2015-Jul-17 14:33N 37°46' W 122°21'0 0.2
2015-Jul-17 13:33N 37°46' W 122°21'8 7.6
2015-Jul-17 12:34N 37°48' W 122°30'1211.7
2015-Jul-17 11:33N 37°46' W 122°45'8 8.1
2015-Jul-17 10:33N 37°50' W 122°54'8 8.1
2015-Jul-17 09:33N 37°54' W 123°03'9 8.9
2015-Jul-17 08:33N 37°59' W 123°12'9 9.1
2015-Jul-17 07:33N 38°06' W 123°20'10 9.5
2015-Jul-17 06:33N 38°12' W 123°29'1211.6
2015-Jul-17 05:33N 38°19' W 123°41'1413.5
2015-Jul-17 04:33N 38°27' W 123°54'1414.0
2015-Jul-17 03:33N 38°36' W 124°09'1414.3
2015-Jul-17 02:33N 38°48' W 124°19'1817.5
2015-Jul-17 01:31N 39°05' W 124°27'33717.7
2015-Jul-16 06:27N 44°39' W 125°22'1717.5
2015-Jul-16 05:29N 44°56' W 125°23'1817.5
2015-Jul-16 04:28N 45°13' W 125°25'1516.6
2015-Jul-16 03:33N 45°29' W 125°26'1817.6
2015-Jul-16 02:33N 45°46' W 125°25'1717.3
2015-Jul-16 01:33N 46°03' W 125°25'1717.5
2015-Jul-16 00:33N 46°21' W 125°24'1817.5
2015-Jul-15 23:32N 46°39' W 125°24'1917.4
2015-Jul-15 22:27N 46°58' W 125°24'1717.4
2015-Jul-15 21:28N 47°15' W 125°23'1717.8
2015-Jul-15 20:33N 47°31' W 125°22'2017.3
2015-Jul-15 19:22N 47°52' W 125°22'1417.5
2015-Jul-15 18:33N 48°05' W 125°16'1716.9
2015-Jul-15 17:33N 48°22' W 125°10'1616.3
2015-Jul-15 16:33N 48°31' W 124°50'1716.8
2015-Jul-15 15:33N 48°26' W 124°26'1515.0
2015-Jul-15 14:33N 48°20' W 124°05'1313.2
2015-Jul-15 13:33N 48°17' W 123°45'1111.6
2015-Jul-15 12:33N 48°18' W 123°28'10 9.6
2015-Jul-15 11:33N 48°23' W 123°17'1616.2
2015-Jul-15 10:33N 48°40' W 123°15'1413.7
2015-Jul-15 09:33N 48°52' W 123°06'1918.9
2015-Jul-15 08:33N 49°06' W 123°24'1515.5
2015-Jul-15 07:33N 49°19' W 123°11'4 4.0
2015-Jul-15 06:32N 49°17' W 123°06'0 0.0
2015-Jul-15 05:32N 49°17' W 123°06'0 0.0
2015-Jul-15 04:32N 49°17' W 123°06'0 0.0
2015-Jul-15 03:32N 49°17' W 123°06'0 0.0
2015-Jul-15 02:32N 49°17' W 123°06'0 0.0
2015-Jul-15 01:32N 49°17' W 123°06'0 0.0
2015-Jul-15 00:32N 49°17' W 123°06'  
Track history (hours):
 
Tides and Currents Weather Stations Pressure Air Temp Water Temp Dewpoint Dewpoint Depression Visibility Wind Speed Wind Dir Waves Ship Positions

Nyk Constellation

Last reported at 2015-Jul-24 23:34 UTC. Time now 2015-Aug-02 06:19 UTC.
Position N 27°09' W 115°13'.
Warning: this ship's position is 8 days out of date.

Length 294 m; draft 11 m.

Type: Cargo ship. MMSI: 538002992.

Date/timePositionNaut miles runAvg speedWind from/ knotsBaromVisibWave heightAir tempDewpointWater temp
2015-Jul-24 23:34N 27°09' W 115°13'1818.2
2015-Jul-24 22:33N 27°23' W 115°25'1817.7
2015-Jul-24 21:34N 27°37' W 115°37'2019.6
2015-Jul-24 20:33N 27°55' W 115°46'6821.5
2015-Jul-24 17:24N 28°59' W 116°13'18420.4
2015-Jul-24 08:24N 31°51' W 117°28'1720.2
2015-Jul-24 07:33N 32°07' W 117°35'1919.0
2015-Jul-24 06:33N 32°25' W 117°43'1716.7
2015-Jul-24 05:33N 32°41' W 117°49'2020.2
2015-Jul-24 04:33N 33°00' W 117°55'1918.9
2015-Jul-24 03:33N 33°17' W 118°05'1211.6
2015-Jul-24 02:33N 33°28' W 118°10'1111.2
2015-Jul-24 01:33N 33°39' W 118°14'7 6.8
2015-Jul-24 00:33N 33°45' W 118°16'1 0.6
2015-Jul-23 23:32N 33°45' W 118°16'0 0.0
2015-Jul-23 22:32N 33°45' W 118°16'0 0.0
2015-Jul-23 21:32N 33°45' W 118°16'0 0.0
2015-Jul-23 20:32N 33°45' W 118°16'0 0.0
2015-Jul-23 19:32N 33°45' W 118°16'0 0.0
2015-Jul-23 18:32N 33°45' W 118°16'0 0.0
2015-Jul-23 17:32N 33°45' W 118°16'0 0.0
2015-Jul-23 16:29N 33°45' W 118°16'0 0.0
2015-Jul-23 15:32N 33°45' W 118°16'0 0.0
2015-Jul-23 14:32N 33°45' W 118°16'0 0.0
2015-Jul-23 13:32N 33°45' W 118°16'1 1.4
2015-Jul-23 12:33N 33°44' W 118°17'4 3.4
2015-Jul-23 11:20N 33°42' W 118°12'0 0.0
2015-Jul-23 05:32N 33°42' W 118°12'0 0.0
2015-Jul-23 03:17N 33°42' W 118°12'0 0.0
2015-Jul-23 00:32N 33°42' W 118°12'0 0.2
2015-Jul-22 23:33N 33°42' W 118°12'7 6.3
2015-Jul-22 22:28N 33°36' W 118°15'17 8.7
2015-Jul-22 20:33N 33°42' W 118°34'12610.3
2015-Jul-22 08:16N 34°25' W 120°57'5411.1
2015-Jul-22 03:27N 35°07' W 121°37'2311.6
2015-Jul-22 01:26N 35°27' W 121°52'2111.0
2015-Jul-21 23:33N 35°45' W 122°06'1111.2
2015-Jul-21 22:33N 35°54' W 122°13'1614.0
2015-Jul-21 21:26N 36°08' W 122°22'1613.8
2015-Jul-21 20:14N 36°23' W 122°30'913.7
2015-Jul-21 19:33N 36°31' W 122°35'1413.6
2015-Jul-21 18:33N 36°44' W 122°41'1413.8
2015-Jul-21 17:33N 36°58' W 122°44'1313.5
2015-Jul-21 16:33N 37°11' W 122°43'1110.6
2015-Jul-21 15:33N 37°22' W 122°44'10 9.6
2015-Jul-21 14:33N 37°32' W 122°44'9 9.4
2015-Jul-21 13:33N 37°41' W 122°43'8 8.1
2015-Jul-21 12:33N 37°47' W 122°36'1211.6
2015-Jul-21 11:33N 37°48' W 122°22'2 2.2
2015-Jul-21 10:32N 37°48' W 122°19'0 0.0
2015-Jul-21 09:32N 37°48' W 122°19'0 0.0
2015-Jul-21 08:32N 37°48' W 122°19'0 0.0
2015-Jul-21 07:32N 37°48' W 122°19'0 0.0
2015-Jul-21 06:32N 37°48' W 122°19'0 0.0
2015-Jul-21 05:32N 37°48' W 122°19'0 0.0
2015-Jul-21 04:32N 37°48' W 122°19'0 0.0
2015-Jul-21 03:32N 37°48' W 122°19'0 0.0
2015-Jul-21 02:32N 37°48' W 122°19'0 0.0
2015-Jul-21 01:32N 37°48' W 122°19'0 0.0
2015-Jul-21 00:32N 37°48' W 122°19'0 0.0
2015-Jul-20 23:32N 37°48' W 122°19'0 0.0
2015-Jul-20 22:32N 37°48' W 122°19'0 0.0
2015-Jul-20 21:32N 37°48' W 122°19'0 0.0
2015-Jul-20 20:32N 37°48' W 122°19'0 0.0
2015-Jul-20 19:32N 37°48' W 122°19'0 0.0
2015-Jul-20 18:32N 37°48' W 122°19'0 0.0
2015-Jul-20 17:32N 37°48' W 122°19'0 0.0
2015-Jul-20 16:32N 37°48' W 122°19'0 0.0
2015-Jul-20 15:32N 37°48' W 122°19'0 0.0
2015-Jul-20 14:32N 37°48' W 122°19'0 0.0
2015-Jul-20 13:32N 37°48' W 122°19'0 0.0
2015-Jul-20 12:32N 37°48' W 122°19'0 0.0
2015-Jul-20 11:32N 37°48' W 122°19'0 0.0
2015-Jul-20 10:32N 37°48' W 122°19'0 0.0
2015-Jul-20 09:32N 37°48' W 122°19'0 0.0
2015-Jul-20 08:32N 37°48' W 122°19'0 0.0
2015-Jul-20 07:32N 37°48' W 122°19'0 0.0
2015-Jul-20 06:32N 37°48' W 122°19'0 0.0
2015-Jul-20 05:32N 37°48' W 122°19'0 0.0
2015-Jul-20 04:32N 37°48' W 122°19'0 0.0
2015-Jul-20 03:32N 37°48' W 122°19'0 0.0
2015-Jul-20 02:32N 37°48' W 122°19'0 0.0
2015-Jul-20 01:32N 37°48' W 122°19'0 0.0
2015-Jul-20 00:32N 37°48' W 122°19'0 0.0
2015-Jul-19 23:32N 37°48' W 122°19'0 0.0
2015-Jul-19 22:32N 37°48' W 122°19'0 0.0
2015-Jul-19 21:32N 37°48' W 122°19'0 0.0
2015-Jul-19 20:32N 37°48' W 122°19'0 0.0
2015-Jul-19 19:32N 37°48' W 122°19'0 0.0
2015-Jul-19 18:32N 37°48' W 122°19'0 0.0
2015-Jul-19 17:32N 37°48' W 122°19'0 0.0
2015-Jul-19 16:32N 37°48' W 122°19'0 0.0
2015-Jul-19 15:32N 37°48' W 122°19'0 0.0
2015-Jul-19 14:32N 37°48' W 122°19'0 0.0
2015-Jul-19 13:32N 37°48' W 122°19'0 0.0
2015-Jul-19 12:32N 37°48' W 122°19'0 0.0
2015-Jul-19 11:32N 37°48' W 122°19'0 0.0
2015-Jul-19 10:32N 37°48' W 122°19'0 0.0
2015-Jul-19 09:32N 37°48' W 122°19'0 0.0
2015-Jul-19 08:32N 37°48' W 122°19'0 0.0
2015-Jul-19 07:32N 37°48' W 122°19'0 0.0
2015-Jul-19 06:32N 37°48' W 122°19'0 0.0
2015-Jul-19 05:32N 37°48' W 122°19'0 0.0
2015-Jul-19 04:32N 37°48' W 122°19'0 0.0
2015-Jul-19 00:32N 37°48' W 122°19'0 0.0
2015-Jul-18 23:32N 37°48' W 122°19'0 0.0
2015-Jul-18 22:32N 37°48' W 122°19'0 0.0
2015-Jul-18 21:32N 37°48' W 122°19'0 0.0
2015-Jul-18 20:29N 37°48' W 122°19'0 0.0
2015-Jul-18 19:32N 37°48' W 122°19'0 0.0
2015-Jul-18 18:32N 37°48' W 122°19'0 0.0
2015-Jul-18 17:32N 37°48' W 122°19'0 0.0
2015-Jul-18 16:32N 37°48' W 122°19'0 0.0
2015-Jul-18 15:32N 37°48' W 122°19'0 0.0
2015-Jul-18 14:33N 37°48' W 122°19'0 0.2
2015-Jul-18 13:34N 37°48' W 122°19'2 2.5
2015-Jul-18 12:33N 37°46' W 122°21'0 0.1
2015-Jul-18 11:33N 37°46' W 122°21'0 0.0
2015-Jul-18 10:33N 37°46' W 122°21'0 0.2
2015-Jul-18 09:33N 37°46' W 122°21'0 0.1
2015-Jul-18 08:33N 37°46' W 122°21'0 0.1
2015-Jul-18 07:33N 37°45' W 122°21'0 0.0
2015-Jul-18 06:33N 37°45' W 122°21'0 0.1
2015-Jul-18 05:33N 37°45' W 122°21'0 0.0
2015-Jul-18 04:33N 37°45' W 122°21'0 0.1
2015-Jul-18 03:33N 37°46' W 122°21'0 0.2
2015-Jul-18 02:33N 37°46' W 122°21'0 0.0
2015-Jul-18 01:33N 37°46' W 122°21'0 0.0
2015-Jul-18 00:33N 37°46' W 122°21'0 0.1
2015-Jul-17 23:33N 37°46' W 122°21'0 0.1
2015-Jul-17 22:33N 37°46' W 122°21'0 0.1
2015-Jul-17 21:33N 37°46' W 122°21'0 0.1
2015-Jul-17 20:33N 37°45' W 122°21'0 0.0
2015-Jul-17 19:33N 37°45' W 122°21'0 0.0
2015-Jul-17 18:33N 37°45' W 122°21'0 0.0
2015-Jul-17 17:33N 37°45' W 122°21'0 0.2
2015-Jul-17 16:33N 37°46' W 122°21'0 0.2
2015-Jul-17 15:33N 37°46' W 122°21'0 0.0
2015-Jul-17 14:33N 37°46' W 122°21'0 0.2
2015-Jul-17 13:33N 37°46' W 122°21'8 7.6
2015-Jul-17 12:34N 37°48' W 122°30'1211.7
2015-Jul-17 11:33N 37°46' W 122°45'8 8.1
2015-Jul-17 10:33N 37°50' W 122°54'8 8.1
2015-Jul-17 09:33N 37°54' W 123°03'9 8.9
2015-Jul-17 08:33N 37°59' W 123°12'9 9.1
2015-Jul-17 07:33N 38°06' W 123°20'10 9.5
2015-Jul-17 06:33N 38°12' W 123°29'1211.6
2015-Jul-17 05:33N 38°19' W 123°41'1413.5
2015-Jul-17 04:33N 38°27' W 123°54'1414.0
2015-Jul-17 03:33N 38°36' W 124°09'1414.3
2015-Jul-17 02:33N 38°48' W 124°19'1817.5
2015-Jul-17 01:31N 39°05' W 124°27'33717.7
2015-Jul-16 06:27N 44°39' W 125°22'1717.5
2015-Jul-16 05:29N 44°56' W 125°23'1817.5
2015-Jul-16 04:28N 45°13' W 125°25'1516.6
2015-Jul-16 03:33N 45°29' W 125°26'1817.6
2015-Jul-16 02:33N 45°46' W 125°25'1717.3
2015-Jul-16 01:33N 46°03' W 125°25'1717.5
2015-Jul-16 00:33N 46°21' W 125°24'1817.5
2015-Jul-15 23:32N 46°39' W 125°24'1917.4
2015-Jul-15 22:27N 46°58' W 125°24'1717.4
2015-Jul-15 21:28N 47°15' W 125°23'1717.8
2015-Jul-15 20:33N 47°31' W 125°22'2017.3
2015-Jul-15 19:22N 47°52' W 125°22'1417.5
2015-Jul-15 18:33N 48°05' W 125°16'1716.9
2015-Jul-15 17:33N 48°22' W 125°10'1616.3
2015-Jul-15 16:33N 48°31' W 124°50'1716.8
2015-Jul-15 15:33N 48°26' W 124°26'1515.0
2015-Jul-15 14:33N 48°20' W 124°05'1313.2
2015-Jul-15 13:33N 48°17' W 123°45'1111.6
2015-Jul-15 12:33N 48°18' W 123°28'10 9.6
2015-Jul-15 11:33N 48°23' W 123°17'1616.2
2015-Jul-15 10:33N 48°40' W 123°15'1413.7
2015-Jul-15 09:33N 48°52' W 123°06'1918.9
2015-Jul-15 08:33N 49°06' W 123°24'1515.5
2015-Jul-15 07:33N 49°19' W 123°11'4 4.0
2015-Jul-15 06:32N 49°17' W 123°06'0 0.0
2015-Jul-15 05:32N 49°17' W 123°06'0 0.0
2015-Jul-15 04:32N 49°17' W 123°06'0 0.0
2015-Jul-15 03:32N 49°17' W 123°06'0 0.0
2015-Jul-15 02:32N 49°17' W 123°06'0 0.0
2015-Jul-15 01:32N 49°17' W 123°06'0 0.0
2015-Jul-15 00:32N 49°17' W 123°06'  

Dump ship's entire track history